sensor_id;sensor_type;location;lat;lon;timestamp;temperature;humidity
24420;DHT22;12599;52.426;13.330;2022-09-09T00:00:47;15.10;99.90
24420;DHT22;12599;52.426;13.330;2022-09-09T00:08:21;15.90;99.90
24420;DHT22;12599;52.426;13.330;2022-09-09T00:10:54;15.20;99.90
24420;DHT22;12599;52.426;13.330;2022-09-09T00:13:30;15.20;99.90
24420;DHT22;12599;52.426;13.330;2022-09-09T00:16:10;15.60;99.90
24420;DHT22;12599;52.426;13.330;2022-09-09T00:21:17;15.00;99.90
24420;DHT22;12599;52.426;13.330;2022-09-09T00:24:10;15.40;99.90
24420;DHT22;12599;52.426;13.330;2022-09-09T00:26:45;14.90;99.90
24420;DHT22;12599;52.426;13.330;2022-09-09T00:31:38;14.90;99.90
24420;DHT22;12599;52.426;13.330;2022-09-09T00:34:24;14.80;99.90
24420;DHT22;12599;52.426;13.330;2022-09-09T00:36:52;14.70;99.90
24420;DHT22;12599;52.426;13.330;2022-09-09T00:39:32;14.80;99.90
24420;DHT22;12599;52.426;13.330;2022-09-09T00:42:13;14.80;99.90
24420;DHT22;12599;52.426;13.330;2022-09-09T00:53:08;14.90;99.90
24420;DHT22;12599;52.426;13.330;2022-09-09T00:58:06;14.80;99.90
24420;DHT22;12599;52.426;13.330;2022-09-09T01:17:12;14.50;99.90
24420;DHT22;12599;52.426;13.330;2022-09-09T01:25:07;14.50;99.90
24420;DHT22;12599;52.426;13.330;2022-09-09T01:27:39;14.40;99.90
24420;DHT22;12599;52.426;13.330;2022-09-09T01:30:13;14.50;99.90
24420;DHT22;12599;52.426;13.330;2022-09-09T01:32:44;14.50;99.90
24420;DHT22;12599;52.426;13.330;2022-09-09T01:35:29;14.50;99.90
24420;DHT22;12599;52.426;13.330;2022-09-09T01:37:57;14.40;99.90
24420;DHT22;12599;52.426;13.330;2022-09-09T01:40:23;14.30;99.90
24420;DHT22;12599;52.426;13.330;2022-09-09T01:42:49;14.30;99.90
24420;DHT22;12599;52.426;13.330;2022-09-09T01:45:15;14.30;99.90
24420;DHT22;12599;52.426;13.330;2022-09-09T01:47:41;14.40;99.90
24420;DHT22;12599;52.426;13.330;2022-09-09T01:50:08;14.80;99.90
24420;DHT22;12599;52.426;13.330;2022-09-09T01:52:37;14.20;99.90
24420;DHT22;12599;52.426;13.330;2022-09-09T01:55:03;14.30;99.90
24420;DHT22;12599;52.426;13.330;2022-09-09T01:57:52;14.30;99.90
24420;DHT22;12599;52.426;13.330;2022-09-09T02:00:21;14.30;99.90
24420;DHT22;12599;52.426;13.330;2022-09-09T02:03:00;14.20;99.90
24420;DHT22;12599;52.426;13.330;2022-09-09T02:05:39;14.30;99.90
24420;DHT22;12599;52.426;13.330;2022-09-09T02:08:11;14.20;99.90
24420;DHT22;12599;52.426;13.330;2022-09-09T02:13:14;14.20;99.90
24420;DHT22;12599;52.426;13.330;2022-09-09T02:18:14;14.10;99.90
24420;DHT22;12599;52.426;13.330;2022-09-09T02:20:44;15.00;99.90
24420;DHT22;12599;52.426;13.330;2022-09-09T02:23:11;14.10;99.90
24420;DHT22;12599;52.426;13.330;2022-09-09T02:25:39;14.20;99.90
24420;DHT22;12599;52.426;13.330;2022-09-09T02:28:07;14.20;99.90
24420;DHT22;12599;52.426;13.330;2022-09-09T02:30:35;14.10;99.90
24420;DHT22;12599;52.426;13.330;2022-09-09T02:33:04;14.10;99.90
24420;DHT22;12599;52.426;13.330;2022-09-09T02:35:32;14.10;99.90
24420;DHT22;12599;52.426;13.330;2022-09-09T02:38:01;14.10;99.90
24420;DHT22;12599;52.426;13.330;2022-09-09T02:40:29;14.00;99.90
24420;DHT22;12599;52.426;13.330;2022-09-09T02:42:55;13.90;99.90
24420;DHT22;12599;52.426;13.330;2022-09-09T02:45:24;14.00;99.90
24420;DHT22;12599;52.426;13.330;2022-09-09T02:48:03;14.10;99.90
24420;DHT22;12599;52.426;13.330;2022-09-09T02:51:01;14.00;99.90
24420;DHT22;12599;52.426;13.330;2022-09-09T02:56:18;14.10;99.90
24420;DHT22;12599;52.426;13.330;2022-09-09T02:58:45;14.80;99.90
24420;DHT22;12599;52.426;13.330;2022-09-09T03:01:12;14.00;99.90
24420;DHT22;12599;52.426;13.330;2022-09-09T03:03:38;14.00;99.90
24420;DHT22;12599;52.426;13.330;2022-09-09T03:06:03;14.70;99.90
24420;DHT22;12599;52.426;13.330;2022-09-09T03:08:31;14.00;99.90
24420;DHT22;12599;52.426;13.330;2022-09-09T03:10:59;15.10;99.90
24420;DHT22;12599;52.426;13.330;2022-09-09T03:13:26;14.00;99.90
24420;DHT22;12599;52.426;13.330;2022-09-09T03:15:52;16.30;99.90
24420;DHT22;12599;52.426;13.330;2022-09-09T03:18:17;13.90;99.90
24420;DHT22;12599;52.426;13.330;2022-09-09T03:20:43;14.00;99.90
24420;DHT22;12599;52.426;13.330;2022-09-09T03:23:08;13.80;99.90
24420;DHT22;12599;52.426;13.330;2022-09-09T03:25:34;13.80;99.90
24420;DHT22;12599;52.426;13.330;2022-09-09T03:28:01;15.30;99.90
24420;DHT22;12599;52.426;13.330;2022-09-09T03:30:27;13.80;99.90
24420;DHT22;12599;52.426;13.330;2022-09-09T03:32:54;14.80;99.90
24420;DHT22;12599;52.426;13.330;2022-09-09T03:35:20;13.90;99.90
24420;DHT22;12599;52.426;13.330;2022-09-09T03:37:46;14.40;99.90
24420;DHT22;12599;52.426;13.330;2022-09-09T03:40:12;14.00;99.90
24420;DHT22;12599;52.426;13.330;2022-09-09T03:42:39;14.10;99.90
24420;DHT22;12599;52.426;13.330;2022-09-09T03:45:07;15.60;99.90
24420;DHT22;12599;52.426;13.330;2022-09-09T03:47:34;14.00;99.90
24420;DHT22;12599;52.426;13.330;2022-09-09T03:50:00;13.80;99.90
24420;DHT22;12599;52.426;13.330;2022-09-09T03:52:25;13.90;99.90
24420;DHT22;12599;52.426;13.330;2022-09-09T03:54:52;13.80;99.90
24420;DHT22;12599;52.426;13.330;2022-09-09T03:57:19;15.70;99.90
24420;DHT22;12599;52.426;13.330;2022-09-09T03:59:45;14.30;99.90
24420;DHT22;12599;52.426;13.330;2022-09-09T04:02:10;13.80;99.90
24420;DHT22;12599;52.426;13.330;2022-09-09T04:04:36;13.80;99.90
24420;DHT22;12599;52.426;13.330;2022-09-09T04:07:02;13.80;99.90
24420;DHT22;12599;52.426;13.330;2022-09-09T04:09:28;13.80;99.90
24420;DHT22;12599;52.426;13.330;2022-09-09T04:11:53;14.70;99.90
24420;DHT22;12599;52.426;13.330;2022-09-09T04:14:20;13.80;99.90
24420;DHT22;12599;52.426;13.330;2022-09-09T04:16:46;14.10;99.90
24420;DHT22;12599;52.426;13.330;2022-09-09T04:19:12;14.00;99.90
24420;DHT22;12599;52.426;13.330;2022-09-09T04:21:40;13.80;99.90
24420;DHT22;12599;52.426;13.330;2022-09-09T04:24:07;15.70;99.90
24420;DHT22;12599;52.426;13.330;2022-09-09T04:26:33;13.70;99.90
24420;DHT22;12599;52.426;13.330;2022-09-09T04:28:59;15.30;99.90
24420;DHT22;12599;52.426;13.330;2022-09-09T04:31:24;13.60;99.90
24420;DHT22;12599;52.426;13.330;2022-09-09T04:33:51;13.60;99.90
24420;DHT22;12599;52.426;13.330;2022-09-09T04:36:17;13.60;99.90
24420;DHT22;12599;52.426;13.330;2022-09-09T04:38:44;13.60;99.90
24420;DHT22;12599;52.426;13.330;2022-09-09T04:41:11;14.00;99.90
24420;DHT22;12599;52.426;13.330;2022-09-09T04:43:37;13.70;99.90
24420;DHT22;12599;52.426;13.330;2022-09-09T04:46:03;13.80;99.90
24420;DHT22;12599;52.426;13.330;2022-09-09T04:48:28;12.70;99.90
24420;DHT22;12599;52.426;13.330;2022-09-09T04:50:59;13.80;99.90
24420;DHT22;12599;52.426;13.330;2022-09-09T04:53:25;13.80;99.90
24420;DHT22;12599;52.426;13.330;2022-09-09T04:55:52;13.90;99.90
24420;DHT22;12599;52.426;13.330;2022-09-09T04:58:18;13.90;99.90
24420;DHT22;12599;52.426;13.330;2022-09-09T05:00:44;13.80;99.90
24420;DHT22;12599;52.426;13.330;2022-09-09T05:03:09;13.90;99.90
24420;DHT22;12599;52.426;13.330;2022-09-09T05:05:35;13.90;99.90
24420;DHT22;12599;52.426;13.330;2022-09-09T05:08:05;13.90;99.90
24420;DHT22;12599;52.426;13.330;2022-09-09T05:10:32;14.00;99.90
24420;DHT22;12599;52.426;13.330;2022-09-09T05:12:58;14.10;99.90
24420;DHT22;12599;52.426;13.330;2022-09-09T05:15:23;14.00;99.90
24420;DHT22;12599;52.426;13.330;2022-09-09T05:17:49;14.00;99.90
24420;DHT22;12599;52.426;13.330;2022-09-09T05:20:15;14.20;99.90
24420;DHT22;12599;52.426;13.330;2022-09-09T05:22:40;14.10;99.90
24420;DHT22;12599;52.426;13.330;2022-09-09T05:25:06;14.20;99.90
24420;DHT22;12599;52.426;13.330;2022-09-09T05:27:34;14.40;99.90
24420;DHT22;12599;52.426;13.330;2022-09-09T05:29:59;14.30;99.90
24420;DHT22;12599;52.426;13.330;2022-09-09T05:32:25;14.30;99.90
24420;DHT22;12599;52.426;13.330;2022-09-09T05:34:51;14.40;99.90
24420;DHT22;12599;52.426;13.330;2022-09-09T05:37:17;14.40;99.90
24420;DHT22;12599;52.426;13.330;2022-09-09T05:39:43;14.50;99.90
24420;DHT22;12599;52.426;13.330;2022-09-09T05:42:09;14.60;99.90
24420;DHT22;12599;52.426;13.330;2022-09-09T05:44:35;14.80;99.90
24420;DHT22;12599;52.426;13.330;2022-09-09T05:47:00;14.60;99.90
24420;DHT22;12599;52.426;13.330;2022-09-09T05:49:26;14.60;99.90
24420;DHT22;12599;52.426;13.330;2022-09-09T05:51:51;14.60;99.90
24420;DHT22;12599;52.426;13.330;2022-09-09T05:54:17;14.70;99.90
24420;DHT22;12599;52.426;13.330;2022-09-09T05:56:43;14.80;99.90
24420;DHT22;12599;52.426;13.330;2022-09-09T05:59:08;14.80;99.90
24420;DHT22;12599;52.426;13.330;2022-09-09T06:01:36;14.80;99.90
24420;DHT22;12599;52.426;13.330;2022-09-09T06:04:02;15.00;99.90
24420;DHT22;12599;52.426;13.330;2022-09-09T06:06:34;15.10;99.90
24420;DHT22;12599;52.426;13.330;2022-09-09T06:09:03;15.20;99.90
24420;DHT22;12599;52.426;13.330;2022-09-09T06:11:32;15.30;99.90
24420;DHT22;12599;52.426;13.330;2022-09-09T06:13:59;15.30;99.90
24420;DHT22;12599;52.426;13.330;2022-09-09T06:16:27;15.40;99.90
24420;DHT22;12599;52.426;13.330;2022-09-09T06:18:53;15.40;99.90
24420;DHT22;12599;52.426;13.330;2022-09-09T06:23:50;15.50;99.90
24420;DHT22;12599;52.426;13.330;2022-09-09T06:26:24;15.50;99.90
24420;DHT22;12599;52.426;13.330;2022-09-09T06:28:52;15.60;99.90
24420;DHT22;12599;52.426;13.330;2022-09-09T06:31:22;15.60;99.90
24420;DHT22;12599;52.426;13.330;2022-09-09T06:33:53;15.60;99.90
24420;DHT22;12599;52.426;13.330;2022-09-09T06:36:27;15.70;99.90
24420;DHT22;12599;52.426;13.330;2022-09-09T06:38:53;15.70;99.90
24420;DHT22;12599;52.426;13.330;2022-09-09T06:41:20;15.80;99.90
24420;DHT22;12599;52.426;13.330;2022-09-09T06:43:47;15.80;99.90
24420;DHT22;12599;52.426;13.330;2022-09-09T06:46:19;15.90;99.90
24420;DHT22;12599;52.426;13.330;2022-09-09T06:48:45;15.90;99.90
24420;DHT22;12599;52.426;13.330;2022-09-09T06:51:18;15.90;99.90
24420;DHT22;12599;52.426;13.330;2022-09-09T06:53:46;16.00;99.90
24420;DHT22;12599;52.426;13.330;2022-09-09T06:56:24;18.00;99.90
24420;DHT22;12599;52.426;13.330;2022-09-09T06:58:51;16.30;99.90
24420;DHT22;12599;52.426;13.330;2022-09-09T07:01:22;16.50;99.90
24420;DHT22;12599;52.426;13.330;2022-09-09T07:03:50;16.60;99.90
24420;DHT22;12599;52.426;13.330;2022-09-09T07:06:21;16.80;99.90
24420;DHT22;12599;52.426;13.330;2022-09-09T07:08:55;16.90;99.90
24420;DHT22;12599;52.426;13.330;2022-09-09T07:11:22;17.00;99.90
24420;DHT22;12599;52.426;13.330;2022-09-09T07:13:48;17.10;99.90
24420;DHT22;12599;52.426;13.330;2022-09-09T07:16:16;18.00;99.90
24420;DHT22;12599;52.426;13.330;2022-09-09T07:18:42;17.30;99.90
24420;DHT22;12599;52.426;13.330;2022-09-09T07:21:10;17.40;99.90
24420;DHT22;12599;52.426;13.330;2022-09-09T07:23:38;17.50;99.90
24420;DHT22;12599;52.426;13.330;2022-09-09T07:26:10;17.70;99.90
24420;DHT22;12599;52.426;13.330;2022-09-09T07:28:36;18.90;99.90
24420;DHT22;12599;52.426;13.330;2022-09-09T07:31:03;17.90;99.90
24420;DHT22;12599;52.426;13.330;2022-09-09T07:33:29;18.10;99.90
24420;DHT22;12599;52.426;13.330;2022-09-09T07:38:49;18.50;99.90
24420;DHT22;12599;52.426;13.330;2022-09-09T07:41:24;18.70;99.90
24420;DHT22;12599;52.426;13.330;2022-09-09T07:43:51;18.90;99.90
24420;DHT22;12599;52.426;13.330;2022-09-09T07:46:20;19.00;99.90
24420;DHT22;12599;52.426;13.330;2022-09-09T07:48:49;19.20;99.90
24420;DHT22;12599;52.426;13.330;2022-09-09T07:51:24;19.30;99.90
24420;DHT22;12599;52.426;13.330;2022-09-09T07:54:17;19.40;99.90
24420;DHT22;12599;52.426;13.330;2022-09-09T07:56:45;19.50;99.90
24420;DHT22;12599;52.426;13.330;2022-09-09T07:59:12;19.70;99.90
24420;DHT22;12599;52.426;13.330;2022-09-09T08:01:43;19.80;99.90
24420;DHT22;12599;52.426;13.330;2022-09-09T08:04:14;19.60;99.90
24420;DHT22;12599;52.426;13.330;2022-09-09T08:06:46;19.40;99.90
24420;DHT22;12599;52.426;13.330;2022-09-09T08:09:13;19.40;99.90
24420;DHT22;12599;52.426;13.330;2022-09-09T08:11:39;19.20;99.90
24420;DHT22;12599;52.426;13.330;2022-09-09T08:14:06;19.20;99.90
24420;DHT22;12599;52.426;13.330;2022-09-09T08:16:34;19.00;99.90
24420;DHT22;12599;52.426;13.330;2022-09-09T08:19:02;18.90;99.90
24420;DHT22;12599;52.426;13.330;2022-09-09T08:21:31;19.00;99.90
24420;DHT22;12599;52.426;13.330;2022-09-09T08:23:59;18.90;99.90
24420;DHT22;12599;52.426;13.330;2022-09-09T08:26:27;18.90;99.90
24420;DHT22;12599;52.426;13.330;2022-09-09T08:28:55;18.90;99.90
24420;DHT22;12599;52.426;13.330;2022-09-09T08:31:24;19.00;99.90
24420;DHT22;12599;52.426;13.330;2022-09-09T08:33:50;19.00;99.90
24420;DHT22;12599;52.426;13.330;2022-09-09T08:36:20;19.10;99.90
24420;DHT22;12599;52.426;13.330;2022-09-09T08:38:55;19.00;99.90
24420;DHT22;12599;52.426;13.330;2022-09-09T08:49:57;19.10;99.90
24420;DHT22;12599;52.426;13.330;2022-09-09T08:52:27;19.10;99.90
24420;DHT22;12599;52.426;13.330;2022-09-09T08:54:58;19.10;99.90
24420;DHT22;12599;52.426;13.330;2022-09-09T08:57:28;19.20;99.90
24420;DHT22;12599;52.426;13.330;2022-09-09T08:59:56;19.20;99.90
24420;DHT22;12599;52.426;13.330;2022-09-09T09:05:47;19.50;99.90
24420;DHT22;12599;52.426;13.330;2022-09-09T09:08:31;19.80;99.90
24420;DHT22;12599;52.426;13.330;2022-09-09T09:11:02;20.00;99.90
24420;DHT22;12599;52.426;13.330;2022-09-09T09:16:34;20.20;99.90
24420;DHT22;12599;52.426;13.330;2022-09-09T09:19:03;20.40;99.90
24420;DHT22;12599;52.426;13.330;2022-09-09T09:21:46;20.70;99.90
24420;DHT22;12599;52.426;13.330;2022-09-09T09:24:26;20.60;99.90
24420;DHT22;12599;52.426;13.330;2022-09-09T09:26:54;20.70;99.90
24420;DHT22;12599;52.426;13.330;2022-09-09T09:29:20;20.80;99.90
24420;DHT22;12599;52.426;13.330;2022-09-09T09:31:55;20.90;99.90
24420;DHT22;12599;52.426;13.330;2022-09-09T09:34:22;20.90;99.90
24420;DHT22;12599;52.426;13.330;2022-09-09T09:36:56;20.90;99.90
24420;DHT22;12599;52.426;13.330;2022-09-09T09:39:28;21.10;99.90
24420;DHT22;12599;52.426;13.330;2022-09-09T09:41:54;21.30;99.90
24420;DHT22;12599;52.426;13.330;2022-09-09T09:44:31;21.50;99.90
24420;DHT22;12599;52.426;13.330;2022-09-09T09:47:08;22.30;99.90
24420;DHT22;12599;52.426;13.330;2022-09-09T09:49:36;20.90;99.90
24420;DHT22;12599;52.426;13.330;2022-09-09T09:52:06;21.00;99.90
24420;DHT22;12599;52.426;13.330;2022-09-09T09:54:41;21.20;99.90
24420;DHT22;12599;52.426;13.330;2022-09-09T09:57:11;20.90;99.90
24420;DHT22;12599;52.426;13.330;2022-09-09T09:59:37;21.00;99.90
24420;DHT22;12599;52.426;13.330;2022-09-09T10:02:15;20.70;99.90
24420;DHT22;12599;52.426;13.330;2022-09-09T10:04:41;20.80;99.90
24420;DHT22;12599;52.426;13.330;2022-09-09T10:07:32;20.80;99.90
24420;DHT22;12599;52.426;13.330;2022-09-09T10:09:59;20.90;99.90
24420;DHT22;12599;52.426;13.330;2022-09-09T10:20:45;21.30;99.90
24420;DHT22;12599;52.426;13.330;2022-09-09T10:28:41;21.30;99.90
24420;DHT22;12599;52.426;13.330;2022-09-09T10:31:40;21.30;99.90
24420;DHT22;12599;52.426;13.330;2022-09-09T10:34:17;21.20;99.90
24420;DHT22;12599;52.426;13.330;2022-09-09T10:36:48;21.20;99.90
24420;DHT22;12599;52.426;13.330;2022-09-09T10:39:33;21.10;99.90
24420;DHT22;12599;52.426;13.330;2022-09-09T10:42:14;21.20;99.90
24420;DHT22;12599;52.426;13.330;2022-09-09T10:47:25;21.40;99.90
24420;DHT22;12599;52.426;13.330;2022-09-09T10:50:25;21.50;99.90
24420;DHT22;12599;52.426;13.330;2022-09-09T10:56:09;21.90;99.90
24420;DHT22;12599;52.426;13.330;2022-09-09T10:58:53;22.10;99.90
24420;DHT22;12599;52.426;13.330;2022-09-09T11:01:46;22.20;99.90
24420;DHT22;12599;52.426;13.330;2022-09-09T11:06:50;22.30;99.90
24420;DHT22;12599;52.426;13.330;2022-09-09T11:09:24;22.30;99.90
24420;DHT22;12599;52.426;13.330;2022-09-09T11:11:54;22.30;99.90
24420;DHT22;12599;52.426;13.330;2022-09-09T11:14:52;22.20;99.90
24420;DHT22;12599;52.426;13.330;2022-09-09T11:17:23;22.10;99.90
24420;DHT22;12599;52.426;13.330;2022-09-09T11:19:49;22.00;99.90
24420;DHT22;12599;52.426;13.330;2022-09-09T11:22:32;21.90;99.90
24420;DHT22;12599;52.426;13.330;2022-09-09T11:27:42;22.10;99.90
24420;DHT22;12599;52.426;13.330;2022-09-09T11:30:19;22.10;99.90
24420;DHT22;12599;52.426;13.330;2022-09-09T11:38:29;21.90;99.90
24420;DHT22;12599;52.426;13.330;2022-09-09T11:41:03;22.00;99.90
24420;DHT22;12599;52.426;13.330;2022-09-09T11:43:38;21.90;99.90
24420;DHT22;12599;52.426;13.330;2022-09-09T11:46:05;21.90;99.90
24420;DHT22;12599;52.426;13.330;2022-09-09T11:48:37;22.00;99.90
24420;DHT22;12599;52.426;13.330;2022-09-09T11:51:07;21.90;99.90
24420;DHT22;12599;52.426;13.330;2022-09-09T11:53:34;21.90;99.90
24420;DHT22;12599;52.426;13.330;2022-09-09T11:58:33;22.10;99.90
24420;DHT22;12599;52.426;13.330;2022-09-09T12:14:38;22.80;99.90
24420;DHT22;12599;52.426;13.330;2022-09-09T12:19:41;23.00;99.90
24420;DHT22;12599;52.426;13.330;2022-09-09T12:27:30;22.70;99.90
24420;DHT22;12599;52.426;13.330;2022-09-09T12:30:14;22.50;99.90
24420;DHT22;12599;52.426;13.330;2022-09-09T12:32:40;22.40;99.90
24420;DHT22;12599;52.426;13.330;2022-09-09T12:35:17;22.40;99.90
24420;DHT22;12599;52.426;13.330;2022-09-09T12:37:55;22.40;99.90
24420;DHT22;12599;52.426;13.330;2022-09-09T12:40:27;22.40;99.90
24420;DHT22;12599;52.426;13.330;2022-09-09T12:42:53;22.40;99.90
24420;DHT22;12599;52.426;13.330;2022-09-09T12:45:33;22.50;99.90
24420;DHT22;12599;52.426;13.330;2022-09-09T12:48:06;22.40;99.90
24420;DHT22;12599;52.426;13.330;2022-09-09T12:50:37;22.40;99.90
24420;DHT22;12599;52.426;13.330;2022-09-09T12:53:08;22.50;99.90
24420;DHT22;12599;52.426;13.330;2022-09-09T12:55:37;22.50;99.90
24420;DHT22;12599;52.426;13.330;2022-09-09T12:58:05;22.60;99.90
24420;DHT22;12599;52.426;13.330;2022-09-09T13:00:32;22.50;99.90
24420;DHT22;12599;52.426;13.330;2022-09-09T13:03:00;22.50;99.90
24420;DHT22;12599;52.426;13.330;2022-09-09T13:05:44;22.50;99.90
24420;DHT22;12599;52.426;13.330;2022-09-09T13:08:13;22.60;99.90
24420;DHT22;12599;52.426;13.330;2022-09-09T13:13:19;22.60;99.90
24420;DHT22;12599;52.426;13.330;2022-09-09T13:15:59;22.70;99.90
24420;DHT22;12599;52.426;13.330;2022-09-09T13:18:30;22.60;99.90
24420;DHT22;12599;52.426;13.330;2022-09-09T13:20:57;22.50;99.90
24420;DHT22;12599;52.426;13.330;2022-09-09T13:23:27;22.60;99.90
24420;DHT22;12599;52.426;13.330;2022-09-09T13:25:59;22.70;99.90
24420;DHT22;12599;52.426;13.330;2022-09-09T13:28:27;22.80;99.90
24420;DHT22;12599;52.426;13.330;2022-09-09T13:31:00;22.70;99.90
24420;DHT22;12599;52.426;13.330;2022-09-09T13:33:36;22.80;99.90
24420;DHT22;12599;52.426;13.330;2022-09-09T13:38:33;22.30;99.90
24420;DHT22;12599;52.426;13.330;2022-09-09T13:41:03;23.30;99.90
24420;DHT22;12599;52.426;13.330;2022-09-09T13:43:46;23.50;99.90
24420;DHT22;12599;52.426;13.330;2022-09-09T13:46:36;23.70;99.90
24420;DHT22;12599;52.426;13.330;2022-09-09T13:51:45;23.90;99.90
24420;DHT22;12599;52.426;13.330;2022-09-09T13:54:14;23.60;99.90
24420;DHT22;12599;52.426;13.330;2022-09-09T13:56:41;23.70;99.90
24420;DHT22;12599;52.426;13.330;2022-09-09T13:59:15;23.50;99.90
24420;DHT22;12599;52.426;13.330;2022-09-09T14:01:41;23.70;99.90
24420;DHT22;12599;52.426;13.330;2022-09-09T14:04:08;23.90;99.90
24420;DHT22;12599;52.426;13.330;2022-09-09T14:06:37;24.00;99.90
24420;DHT22;12599;52.426;13.330;2022-09-09T14:09:11;23.90;99.90
24420;DHT22;12599;52.426;13.330;2022-09-09T14:11:37;24.20;99.90
24420;DHT22;12599;52.426;13.330;2022-09-09T14:14:03;24.40;99.90
24420;DHT22;12599;52.426;13.330;2022-09-09T14:16:29;24.40;99.90
24420;DHT22;12599;52.426;13.330;2022-09-09T14:18:54;24.30;99.90
24420;DHT22;12599;52.426;13.330;2022-09-09T14:21:25;24.40;99.90
24420;DHT22;12599;52.426;13.330;2022-09-09T14:23:51;24.40;99.90
24420;DHT22;12599;52.426;13.330;2022-09-09T14:26:18;24.50;99.90
24420;DHT22;12599;52.426;13.330;2022-09-09T14:28:46;24.40;99.90
24420;DHT22;12599;52.426;13.330;2022-09-09T14:31:12;24.30;99.90
24420;DHT22;12599;52.426;13.330;2022-09-09T14:33:39;24.00;99.90
24420;DHT22;12599;52.426;13.330;2022-09-09T14:36:05;23.70;99.90
24420;DHT22;12599;52.426;13.330;2022-09-09T14:38:35;23.40;99.90
24420;DHT22;12599;52.426;13.330;2022-09-09T14:41:13;23.30;99.90
24420;DHT22;12599;52.426;13.330;2022-09-09T14:43:39;25.00;99.90
24420;DHT22;12599;52.426;13.330;2022-09-09T14:46:06;22.90;99.90
24420;DHT22;12599;52.426;13.330;2022-09-09T14:48:32;22.70;99.90
24420;DHT22;12599;52.426;13.330;2022-09-09T14:51:05;21.10;99.90
24420;DHT22;12599;52.426;13.330;2022-09-09T14:53:30;22.40;99.90
24420;DHT22;12599;52.426;13.330;2022-09-09T14:56:04;22.40;99.90
24420;DHT22;12599;52.426;13.330;2022-09-09T14:58:32;22.30;99.90
24420;DHT22;12599;52.426;13.330;2022-09-09T15:01:15;22.20;99.90
24420;DHT22;12599;52.426;13.330;2022-09-09T15:03:59;22.50;99.90
24420;DHT22;12599;52.426;13.330;2022-09-09T15:06:29;22.70;99.90
24420;DHT22;12599;52.426;13.330;2022-09-09T15:08:56;22.70;99.90
24420;DHT22;12599;52.426;13.330;2022-09-09T15:11:26;22.70;99.90
24420;DHT22;12599;52.426;13.330;2022-09-09T15:13:53;22.80;99.90
24420;DHT22;12599;52.426;13.330;2022-09-09T15:16:20;22.90;99.90
24420;DHT22;12599;52.426;13.330;2022-09-09T15:18:51;23.10;99.90
24420;DHT22;12599;52.426;13.330;2022-09-09T15:21:21;22.70;99.90
24420;DHT22;12599;52.426;13.330;2022-09-09T15:23:47;23.90;99.90
24420;DHT22;12599;52.426;13.330;2022-09-09T15:26:14;24.10;99.90
24420;DHT22;12599;52.426;13.330;2022-09-09T15:28:41;24.00;99.90
24420;DHT22;12599;52.426;13.330;2022-09-09T15:31:13;23.90;99.90
24420;DHT22;12599;52.426;13.330;2022-09-09T15:33:40;23.70;99.90
24420;DHT22;12599;52.426;13.330;2022-09-09T15:36:23;23.50;99.90
24420;DHT22;12599;52.426;13.330;2022-09-09T15:38:50;23.30;99.90
24420;DHT22;12599;52.426;13.330;2022-09-09T15:41:16;23.20;99.90
24420;DHT22;12599;52.426;13.330;2022-09-09T15:43:44;23.20;99.90
24420;DHT22;12599;52.426;13.330;2022-09-09T15:48:43;23.10;99.90
24420;DHT22;12599;52.426;13.330;2022-09-09T15:51:10;23.00;99.90
24420;DHT22;12599;52.426;13.330;2022-09-09T15:53:37;22.80;99.90
24420;DHT22;12599;52.426;13.330;2022-09-09T15:56:07;22.60;99.90
24420;DHT22;12599;52.426;13.330;2022-09-09T15:58:34;22.50;99.90
24420;DHT22;12599;52.426;13.330;2022-09-09T16:01:02;22.60;99.90
24420;DHT22;12599;52.426;13.330;2022-09-09T16:03:33;22.70;99.90
24420;DHT22;12599;52.426;13.330;2022-09-09T16:05:59;22.60;99.90
24420;DHT22;12599;52.426;13.330;2022-09-09T16:08:27;22.60;99.90
24420;DHT22;12599;52.426;13.330;2022-09-09T16:10:56;22.60;99.90
24420;DHT22;12599;52.426;13.330;2022-09-09T16:13:21;22.60;99.90
24420;DHT22;12599;52.426;13.330;2022-09-09T16:15:54;22.50;99.90
24420;DHT22;12599;52.426;13.330;2022-09-09T16:18:20;22.50;99.90
24420;DHT22;12599;52.426;13.330;2022-09-09T16:20:54;22.50;99.90
24420;DHT22;12599;52.426;13.330;2022-09-09T16:23:20;22.40;99.90
24420;DHT22;12599;52.426;13.330;2022-09-09T16:25:54;22.30;99.90
24420;DHT22;12599;52.426;13.330;2022-09-09T16:28:21;22.20;99.90
24420;DHT22;12599;52.426;13.330;2022-09-09T16:30:47;22.10;99.90
24420;DHT22;12599;52.426;13.330;2022-09-09T16:33:13;21.90;99.90
24420;DHT22;12599;52.426;13.330;2022-09-09T16:35:42;21.80;99.90
24420;DHT22;12599;52.426;13.330;2022-09-09T16:38:08;21.70;99.90
24420;DHT22;12599;52.426;13.330;2022-09-09T16:40:34;22.00;99.90
24420;DHT22;12599;52.426;13.330;2022-09-09T16:43:02;21.50;99.90
24420;DHT22;12599;52.426;13.330;2022-09-09T16:45:28;21.40;99.90
24420;DHT22;12599;52.426;13.330;2022-09-09T16:47:54;21.40;99.90
24420;DHT22;12599;52.426;13.330;2022-09-09T16:50:20;21.30;99.90
24420;DHT22;12599;52.426;13.330;2022-09-09T16:52:45;21.10;99.90
24420;DHT22;12599;52.426;13.330;2022-09-09T16:55:11;21.10;99.90
24420;DHT22;12599;52.426;13.330;2022-09-09T16:57:37;21.00;99.90
24420;DHT22;12599;52.426;13.330;2022-09-09T17:00:03;20.90;99.90
24420;DHT22;12599;52.426;13.330;2022-09-09T17:02:31;20.80;99.90
24420;DHT22;12599;52.426;13.330;2022-09-09T17:04:56;20.80;99.90
24420;DHT22;12599;52.426;13.330;2022-09-09T17:07:22;20.80;99.90
24420;DHT22;12599;52.426;13.330;2022-09-09T17:09:48;20.80;99.90
24420;DHT22;12599;52.426;13.330;2022-09-09T17:12:14;20.70;99.90
24420;DHT22;12599;52.426;13.330;2022-09-09T17:14:41;20.60;99.90
24420;DHT22;12599;52.426;13.330;2022-09-09T17:17:07;20.60;99.90
24420;DHT22;12599;52.426;13.330;2022-09-09T17:19:33;20.50;99.90
24420;DHT22;12599;52.426;13.330;2022-09-09T17:21:59;20.50;99.90
24420;DHT22;12599;52.426;13.330;2022-09-09T17:24:26;20.40;99.90
24420;DHT22;12599;52.426;13.330;2022-09-09T17:26:52;20.70;99.90
24420;DHT22;12599;52.426;13.330;2022-09-09T17:29:18;20.30;99.90
24420;DHT22;12599;52.426;13.330;2022-09-09T17:31:44;20.20;99.90
24420;DHT22;12599;52.426;13.330;2022-09-09T17:34:10;20.10;99.90
24420;DHT22;12599;52.426;13.330;2022-09-09T17:36:35;20.10;99.90
24420;DHT22;12599;52.426;13.330;2022-09-09T17:39:03;20.00;99.90
24420;DHT22;12599;52.426;13.330;2022-09-09T17:41:39;19.90;99.90
24420;DHT22;12599;52.426;13.330;2022-09-09T17:44:08;19.80;99.90
24420;DHT22;12599;52.426;13.330;2022-09-09T17:46:36;19.70;99.90